KPNE/PNE METAR and TAF weather

Enter ICAO airport designator
Station Type Date Time Source
KPNE METAR 2024/07/13 02:54 UTC NOAA

KPNE 130254Z VRB04KT 10SM FEW110 26/22 A3020 RMK AO2 SLP226 T02560217 50006


Station Type Date Time Source
KPNE Decoded METAR 2024/07/13 02:54 UTC NOAA

N.E. PHILADELPHIA AIRPORT, PA, United States (KPNE) 40-05N 075-01W 28M
Jul 12, 2024 - 10:54 PM EDT / 2024.07.13 0254 UTC
Wind: Variable at 5 MPH (4 KT):0
Visibility: 10 mile(s):0
Sky conditions: mostly clear
Temperature: 78.1 F (25.6 C)
Dew Point: 71.1 F (21.7 C)
Relative Humidity: 79%
Pressure (altimeter): 30.2 in. Hg (1022 hPa)
Pressure tendency: 0.02 inches (0.6 hPa) higher than three hours ago
ob: KPNE 130254Z VRB04KT 10SM FEW110 26/22 A3020 RMK AO2 SLP226 T02560217 50006
cycle: 3

Station Type Date Time Source
KPNE TAF 2024/07/13 01:09 UTC NOAA